createdAt,value
2018-06-30T00:01:35.009Z,19.00
2018-06-30T00:04:04.703Z,19.10
2018-06-30T00:06:34.311Z,19.00
2018-06-30T00:09:03.948Z,18.80
2018-06-30T00:11:33.667Z,18.60
2018-06-30T00:16:31.952Z,18.50
2018-06-30T00:19:01.632Z,18.50
2018-06-30T00:21:32.469Z,18.40
2018-06-30T00:24:02.075Z,18.40
2018-06-30T00:26:31.713Z,18.40
2018-06-30T00:29:01.495Z,18.30
2018-06-30T00:31:32.508Z,18.30
2018-06-30T00:34:01.968Z,18.40
2018-06-30T00:36:31.657Z,18.40
2018-06-30T00:39:01.278Z,18.30
2018-06-30T00:41:30.796Z,18.30
2018-06-30T00:44:00.300Z,18.30
2018-06-30T00:46:29.808Z,18.30
2018-06-30T00:48:59.586Z,18.30
2018-06-30T00:51:30.319Z,18.20
2018-06-30T00:53:59.824Z,18.20
2018-06-30T00:56:29.634Z,18.20
2018-06-30T00:58:59.330Z,18.10
2018-06-30T01:01:29.262Z,18.10
2018-06-30T01:03:58.801Z,18.10
2018-06-30T01:06:28.476Z,18.10
2018-06-30T01:08:58.115Z,18.00
2018-06-30T01:11:27.622Z,17.90
2018-06-30T01:13:57.303Z,17.80
2018-06-30T01:16:27.010Z,17.80
2018-06-30T01:18:56.653Z,17.90
2018-06-30T01:21:26.356Z,17.80
2018-06-30T01:23:56.038Z,17.80
2018-06-30T01:26:25.472Z,17.80
2018-06-30T01:28:55.360Z,17.90
2018-06-30T01:31:24.889Z,18.00
2018-06-30T01:33:54.565Z,18.10
2018-06-30T01:36:24.020Z,18.00
2018-06-30T01:38:53.684Z,17.90
2018-06-30T01:41:24.417Z,17.80
2018-06-30T01:43:53.963Z,17.60
2018-06-30T01:46:23.741Z,17.70
2018-06-30T01:48:53.242Z,17.80
2018-06-30T01:51:22.847Z,17.80
2018-06-30T01:53:52.352Z,17.70
2018-06-30T01:56:21.884Z,17.80
2018-06-30T01:58:51.672Z,17.70
2018-06-30T02:01:21.313Z,17.70
2018-06-30T02:03:50.882Z,17.50
2018-06-30T02:06:20.530Z,17.50
2018-06-30T02:08:50.207Z,17.50
2018-06-30T02:11:19.941Z,17.40
2018-06-30T02:13:49.424Z,17.40
2018-06-30T02:16:18.856Z,17.30
2018-06-30T02:18:48.371Z,17.20
2018-06-30T02:21:17.977Z,17.00
2018-06-30T02:23:47.544Z,17.00
2018-06-30T02:26:16.976Z,17.10
2018-06-30T02:28:46.759Z,17.10
2018-06-30T02:31:16.366Z,17.10
2018-06-30T02:33:46.178Z,17.10
2018-06-30T02:36:16.001Z,17.10
2018-06-30T02:38:45.798Z,17.20
2018-06-30T02:41:16.883Z,17.20
2018-06-30T02:43:46.755Z,17.10
2018-06-30T02:46:16.316Z,16.90
2018-06-30T02:48:45.872Z,16.90
2018-06-30T02:51:16.613Z,16.80
2018-06-30T02:53:46.315Z,16.90
2018-06-30T02:56:15.828Z,17.00
2018-06-30T02:58:45.795Z,17.00
2018-06-30T03:01:15.651Z,16.90
2018-06-30T03:03:45.568Z,16.70
2018-06-30T03:06:15.309Z,16.70
2018-06-30T03:08:44.920Z,16.80
2018-06-30T03:11:14.597Z,16.70
2018-06-30T03:13:44.589Z,16.70
2018-06-30T03:16:16.779Z,16.90
2018-06-30T03:18:47.724Z,16.90
2018-06-30T03:21:17.254Z,16.80
2018-06-30T03:23:46.762Z,16.80
2018-06-30T03:26:16.438Z,16.80
2018-06-30T03:28:46.073Z,16.80
2018-06-30T03:31:15.589Z,16.80
2018-06-30T03:33:45.389Z,16.80
2018-06-30T03:36:14.969Z,16.80
2018-06-30T03:38:44.581Z,16.80
2018-06-30T03:41:15.313Z,16.80
2018-06-30T03:43:45.029Z,16.90
2018-06-30T03:46:14.884Z,16.80
2018-06-30T03:48:44.547Z,16.70
2018-06-30T03:51:14.152Z,16.70
2018-06-30T03:53:43.589Z,16.70
2018-06-30T03:56:13.260Z,16.60
2018-06-30T03:58:42.872Z,16.60
2018-06-30T04:01:13.709Z,16.60
2018-06-30T04:03:43.210Z,16.60
2018-06-30T04:06:12.952Z,16.60
2018-06-30T04:08:42.428Z,16.50
2018-06-30T04:11:13.265Z,16.50
2018-06-30T04:13:42.776Z,16.50
2018-06-30T04:16:12.207Z,16.50
2018-06-30T04:18:41.690Z,16.40
2018-06-30T04:21:11.217Z,16.50
2018-06-30T04:23:41.012Z,16.50
2018-06-30T04:26:10.604Z,16.50
2018-06-30T04:28:40.212Z,16.50
2018-06-30T04:31:11.048Z,16.60
2018-06-30T04:33:40.558Z,16.80
2018-06-30T04:36:10.065Z,16.90
2018-06-30T04:38:39.972Z,16.80
2018-06-30T04:41:10.533Z,16.80
2018-06-30T04:43:40.212Z,16.70
2018-06-30T04:46:09.643Z,16.80
2018-06-30T04:48:39.162Z,16.90
2018-06-30T04:51:09.114Z,17.00
2018-06-30T04:53:38.576Z,17.10
2018-06-30T04:56:08.255Z,17.10
2018-06-30T04:58:37.961Z,17.10
2018-06-30T05:01:08.695Z,17.20
2018-06-30T05:03:38.406Z,17.30
2018-06-30T05:06:08.120Z,17.50
2018-06-30T05:08:37.825Z,17.70
2018-06-30T05:11:08.559Z,17.80
2018-06-30T05:13:38.064Z,17.90
2018-06-30T05:16:07.674Z,18.10
2018-06-30T05:18:37.484Z,18.20
2018-06-30T05:21:08.150Z,18.10
2018-06-30T05:23:37.944Z,18.20
2018-06-30T05:26:07.535Z,18.40
2018-06-30T05:28:37.048Z,18.60
2018-06-30T05:31:06.752Z,18.70
2018-06-30T05:33:36.268Z,18.80
2018-06-30T05:36:05.895Z,19.00
2018-06-30T05:38:35.477Z,19.10
2018-06-30T05:41:05.705Z,19.20
2018-06-30T05:43:35.232Z,19.20
2018-06-30T05:46:04.945Z,19.50
2018-06-30T05:51:03.563Z,19.80
2018-06-30T05:53:33.327Z,19.90
2018-06-30T05:56:03.039Z,19.90
2018-06-30T05:58:32.674Z,20.00
2018-06-30T06:01:02.360Z,20.20
2018-06-30T06:03:31.765Z,20.10
2018-06-30T06:06:01.479Z,20.30
2018-06-30T06:08:30.969Z,20.50
2018-06-30T06:11:00.576Z,20.70
2018-06-30T06:13:30.499Z,20.70
2018-06-30T06:15:59.996Z,20.70
2018-06-30T06:18:29.509Z,20.80
2018-06-30T06:20:59.108Z,21.00
2018-06-30T06:23:28.718Z,21.00
2018-06-30T06:25:58.290Z,20.90
2018-06-30T06:28:28.373Z,21.00
2018-06-30T06:31:02.256Z,21.10
2018-06-30T06:33:31.963Z,21.30
2018-06-30T06:36:01.598Z,21.50
2018-06-30T06:38:31.279Z,21.50
2018-06-30T06:41:02.011Z,21.40
2018-06-30T06:43:32.076Z,21.60
2018-06-30T06:46:01.585Z,21.90
2018-06-30T06:48:31.244Z,22.00
2018-06-30T06:51:02.021Z,22.10
2018-06-30T06:56:00.784Z,22.20
2018-06-30T06:58:30.989Z,22.20
2018-06-30T07:01:00.552Z,22.10
2018-06-30T07:06:00.320Z,22.30
2018-06-30T07:08:30.425Z,22.40
2018-06-30T07:11:00.253Z,22.00
2018-06-30T07:13:29.743Z,22.40
2018-06-30T07:15:59.708Z,22.50
2018-06-30T07:18:29.462Z,22.60
2018-06-30T07:20:59.141Z,22.70
2018-06-30T07:23:28.824Z,22.50
2018-06-30T07:25:58.233Z,22.60
2018-06-30T07:28:27.844Z,22.70
2018-06-30T07:30:57.656Z,22.90
2018-06-30T07:33:27.488Z,23.10
2018-06-30T07:35:58.549Z,22.80
2018-06-30T07:38:28.964Z,23.10
2018-06-30T07:40:58.917Z,22.80
2018-06-30T07:43:28.807Z,23.00
2018-06-30T07:45:58.424Z,23.10
2018-06-30T07:48:28.101Z,23.00
2018-06-30T07:50:57.809Z,23.30
2018-06-30T07:53:27.609Z,23.40
2018-06-30T07:56:02.170Z,23.20
2018-06-30T07:58:31.732Z,23.30
2018-06-30T08:01:01.301Z,23.40
2018-06-30T08:03:30.821Z,23.40
2018-06-30T08:06:00.581Z,23.60
2018-06-30T08:08:30.372Z,23.90
2018-06-30T08:11:00.205Z,24.10
2018-06-30T08:13:30.116Z,24.20
2018-06-30T08:15:59.776Z,24.40
2018-06-30T08:18:29.317Z,24.10
2018-06-30T08:20:59.344Z,24.20
2018-06-30T08:23:29.072Z,24.20
2018-06-30T08:25:58.691Z,24.10
2018-06-30T08:28:28.495Z,24.10
2018-06-30T08:33:27.720Z,24.60
2018-06-30T08:35:57.325Z,25.00
2018-06-30T08:38:26.928Z,25.10
2018-06-30T08:40:56.985Z,25.10
2018-06-30T08:43:26.579Z,25.30
2018-06-30T08:45:56.061Z,25.20
2018-06-30T08:48:25.883Z,25.40
2018-06-30T08:50:55.700Z,25.50
2018-06-30T08:53:25.248Z,24.90
2018-06-30T08:55:54.999Z,25.00
2018-06-30T08:58:24.472Z,24.80
2018-06-30T09:00:54.107Z,25.00
2018-06-30T09:03:23.785Z,25.10
2018-06-30T09:05:53.973Z,25.30
2018-06-30T09:08:23.612Z,25.60
2018-06-30T09:10:53.360Z,25.60
2018-06-30T09:13:23.159Z,25.80
2018-06-30T09:15:52.957Z,25.70
2018-06-30T09:18:22.588Z,26.00
2018-06-30T09:20:52.202Z,26.30
2018-06-30T09:23:21.531Z,26.50
2018-06-30T09:25:50.820Z,26.70
2018-06-30T09:28:20.085Z,26.70
2018-06-30T09:30:49.370Z,26.80
2018-06-30T09:33:18.699Z,26.60
2018-06-30T09:35:48.061Z,26.80
2018-06-30T09:38:17.670Z,26.50
2018-06-30T09:40:47.013Z,26.20
2018-06-30T09:43:16.320Z,26.30
2018-06-30T09:45:45.621Z,26.70
2018-06-30T09:50:43.848Z,27.40
2018-06-30T09:53:13.328Z,27.60
2018-06-30T09:55:42.672Z,26.90
2018-06-30T09:58:11.952Z,27.00
2018-06-30T10:00:47.516Z,27.40
2018-06-30T10:03:16.849Z,27.80
2018-06-30T10:05:46.213Z,27.80
2018-06-30T10:08:15.523Z,27.70
2018-06-30T10:10:45.408Z,28.10
2018-06-30T10:13:14.669Z,28.10
2018-06-30T10:15:44.031Z,27.80
2018-06-30T10:18:13.292Z,27.80
2018-06-30T10:20:42.740Z,28.00
2018-06-30T10:23:12.157Z,28.40
2018-06-30T10:25:41.413Z,28.70
2018-06-30T10:28:11.387Z,28.70
2018-06-30T10:30:41.509Z,28.40
2018-06-30T10:33:11.581Z,28.70
2018-06-30T10:35:40.940Z,28.70
2018-06-30T10:38:10.249Z,28.50
2018-06-30T10:40:39.631Z,28.60
2018-06-30T10:43:09.287Z,29.00
2018-06-30T10:45:41.727Z,29.10
2018-06-30T10:48:11.686Z,28.60
2018-06-30T10:50:41.078Z,29.10
2018-06-30T10:53:10.704Z,28.90
2018-06-30T10:55:40.089Z,28.60
2018-06-30T10:58:09.377Z,28.70
2018-06-30T11:00:38.867Z,29.30
2018-06-30T11:03:08.891Z,29.50
2018-06-30T11:10:39.011Z,29.80
2018-06-30T11:13:08.360Z,30.20
2018-06-30T11:15:37.671Z,30.30
2018-06-30T11:18:07.412Z,30.20
2018-06-30T11:20:36.708Z,30.30
2018-06-30T11:23:06.064Z,30.50
2018-06-30T11:25:35.592Z,30.70
2018-06-30T11:28:05.158Z,30.20
2018-06-30T11:30:34.541Z,30.40
2018-06-30T11:33:05.232Z,30.60
2018-06-30T11:35:35.368Z,30.40
2018-06-30T11:38:04.752Z,30.40
2018-06-30T11:40:34.257Z,30.70
2018-06-30T11:43:04.047Z,30.50
2018-06-30T11:45:33.341Z,30.20
2018-06-30T11:48:04.137Z,30.60
2018-06-30T11:50:43.107Z,30.90
2018-06-30T11:53:12.460Z,31.20
2018-06-30T11:55:41.806Z,31.50
2018-06-30T11:58:11.225Z,31.80
2018-06-30T12:00:40.821Z,31.50
2018-06-30T12:03:11.410Z,31.20
2018-06-30T12:05:40.728Z,31.10
2018-06-30T12:08:10.024Z,31.60
2018-06-30T12:10:39.373Z,31.80
2018-06-30T12:13:09.061Z,32.10
2018-06-30T12:15:39.184Z,32.20
2018-06-30T12:18:08.846Z,32.50
2018-06-30T12:20:39.499Z,32.80
2018-06-30T12:23:08.812Z,32.80
2018-06-30T12:25:38.113Z,33.20
2018-06-30T12:28:07.756Z,33.50
2018-06-30T12:30:38.434Z,33.60
2018-06-30T12:33:07.746Z,33.40
2018-06-30T12:35:46.570Z,33.80
2018-06-30T12:38:31.825Z,34.10
2018-06-30T12:41:01.960Z,33.70
2018-06-30T12:43:31.331Z,33.70
2018-06-30T12:46:00.907Z,34.30
2018-06-30T12:48:30.248Z,33.70
2018-06-30T12:50:59.607Z,33.90
2018-06-30T12:53:29.225Z,34.10
2018-06-30T12:55:58.551Z,34.30
2018-06-30T12:58:27.863Z,34.90
2018-06-30T13:00:57.364Z,34.80
2018-06-30T13:03:26.881Z,33.80
2018-06-30T13:05:56.161Z,33.40
2018-06-30T13:08:25.436Z,34.00
2018-06-30T13:10:54.773Z,35.00
2018-06-30T13:13:24.068Z,34.40
2018-06-30T13:15:53.336Z,34.10
2018-06-30T13:18:22.726Z,34.00
2018-06-30T13:20:55.187Z,34.80
2018-06-30T13:23:25.707Z,35.10
2018-06-30T13:25:55.701Z,35.50
2018-06-30T13:28:25.044Z,35.80
2018-06-30T13:30:54.622Z,36.10
2018-06-30T13:33:24.122Z,36.50
2018-06-30T13:35:53.429Z,36.80
2018-06-30T13:38:23.349Z,36.60
2018-06-30T13:40:52.958Z,36.90
2018-06-30T13:45:51.047Z,37.30
2018-06-30T13:50:49.297Z,38.10
2018-06-30T13:53:18.647Z,38.20
2018-06-30T13:55:48.530Z,38.20
2018-06-30T13:58:17.952Z,38.30
2018-06-30T14:00:47.251Z,38.10
2018-06-30T14:03:16.549Z,37.90
2018-06-30T14:05:45.933Z,38.40
2018-06-30T14:08:15.163Z,37.90
2018-06-30T14:10:44.558Z,38.20
2018-06-30T14:13:13.856Z,38.70
2018-06-30T14:15:43.202Z,38.70
2018-06-30T14:18:12.585Z,39.20
2018-06-30T14:20:41.869Z,39.30
2018-06-30T14:23:17.398Z,39.60
2018-06-30T14:25:46.825Z,39.70
2018-06-30T14:28:16.129Z,39.90
2018-06-30T14:35:42.960Z,39.50
2018-06-30T14:38:12.327Z,39.70
2018-06-30T14:40:41.657Z,40.20
2018-06-30T14:43:10.888Z,40.40
2018-06-30T14:45:40.306Z,40.50
2018-06-30T14:48:09.692Z,40.70
2018-06-30T14:50:39.029Z,40.70
2018-06-30T14:53:08.644Z,40.90
2018-06-30T14:55:37.931Z,40.90
2018-06-30T15:00:36.805Z,41.00
2018-06-30T15:03:06.195Z,41.20
2018-06-30T15:05:35.540Z,41.00
2018-06-30T15:08:04.907Z,41.00
2018-06-30T15:10:34.280Z,40.80
2018-06-30T15:13:03.631Z,40.90
2018-06-30T15:15:32.895Z,41.00
2018-06-30T15:18:02.234Z,40.70
2018-06-30T15:20:31.520Z,41.00
2018-06-30T15:23:00.895Z,40.80
2018-06-30T15:25:30.200Z,40.40
2018-06-30T15:27:59.491Z,40.30
2018-06-30T15:30:28.847Z,40.20
2018-06-30T15:34:01.412Z,40.60
2018-06-30T15:36:30.766Z,40.20
2018-06-30T15:39:00.060Z,40.30
2018-06-30T15:41:29.707Z,40.20
2018-06-30T15:43:59.096Z,39.80
2018-06-30T15:46:28.335Z,39.90
2018-06-30T15:48:57.659Z,40.20
2018-06-30T15:51:27.100Z,40.40
2018-06-30T15:53:56.502Z,40.60
2018-06-30T15:56:25.741Z,40.40
2018-06-30T16:01:24.037Z,40.20
2018-06-30T16:03:54.421Z,40.30
2018-06-30T16:06:23.749Z,39.90
2018-06-30T16:08:53.054Z,39.20
2018-06-30T16:11:22.425Z,39.50
2018-06-30T16:13:51.830Z,39.50
2018-06-30T16:16:21.259Z,39.50
2018-06-30T16:18:50.544Z,39.50
2018-06-30T16:21:19.886Z,39.30
2018-06-30T16:23:49.149Z,39.10
2018-06-30T16:26:18.472Z,39.10
2018-06-30T16:28:47.813Z,39.30
2018-06-30T16:31:17.189Z,39.30
2018-06-30T16:33:46.504Z,39.10
2018-06-30T16:36:15.844Z,38.20
2018-06-30T16:38:45.400Z,37.50
2018-06-30T16:41:14.804Z,36.10
2018-06-30T16:43:44.099Z,34.70
2018-06-30T16:46:13.568Z,34.20
2018-06-30T16:48:42.937Z,33.40
2018-06-30T16:51:12.401Z,32.90
2018-06-30T16:53:41.696Z,32.30
2018-06-30T16:56:10.963Z,31.80
2018-06-30T16:58:40.304Z,31.50
2018-06-30T17:01:09.788Z,31.10
2018-06-30T17:03:39.087Z,30.90
2018-06-30T17:06:08.380Z,30.70
2018-06-30T17:08:37.765Z,30.60
2018-06-30T17:11:07.496Z,30.40
2018-06-30T17:13:36.815Z,30.20
2018-06-30T17:16:06.373Z,30.10
2018-06-30T17:18:36.120Z,30.00
2018-06-30T17:21:06.448Z,29.90
2018-06-30T17:23:36.371Z,29.80
2018-06-30T17:28:34.442Z,29.40
2018-06-30T17:31:03.764Z,29.40
2018-06-30T17:36:02.528Z,29.20
2018-06-30T17:38:32.151Z,29.10
2018-06-30T17:41:01.770Z,29.00
2018-06-30T17:43:31.537Z,28.90
2018-06-30T17:46:01.272Z,28.90
2018-06-30T17:48:31.386Z,28.90
2018-06-30T17:51:01.393Z,28.80
2018-06-30T17:53:31.077Z,28.60
2018-06-30T17:58:29.868Z,28.50
2018-06-30T18:00:59.850Z,28.50
2018-06-30T18:03:29.464Z,28.40
2018-06-30T18:08:28.240Z,28.30
2018-06-30T18:10:58.147Z,28.10
2018-06-30T18:13:27.619Z,28.00
2018-06-30T18:15:57.280Z,27.90
2018-06-30T18:18:56.916Z,27.80
2018-06-30T18:21:32.389Z,27.70
2018-06-30T18:24:01.952Z,27.70
2018-06-30T18:26:31.886Z,27.60
2018-06-30T18:29:01.426Z,27.50
2018-06-30T18:31:31.536Z,27.40
2018-06-30T18:34:01.052Z,27.20
2018-06-30T18:36:31.073Z,27.10
2018-06-30T18:39:00.732Z,27.00
2018-06-30T18:41:30.537Z,27.00
2018-06-30T18:44:00.407Z,26.90
2018-06-30T18:46:30.077Z,26.80
2018-06-30T18:48:59.800Z,26.70
2018-06-30T18:51:29.780Z,26.70
2018-06-30T18:54:00.078Z,26.60
2018-06-30T18:56:29.645Z,26.60
2018-06-30T18:58:59.365Z,26.50
2018-06-30T19:06:27.237Z,26.30
2018-06-30T19:08:56.810Z,26.20
2018-06-30T19:11:27.482Z,26.20
2018-06-30T19:13:57.520Z,26.10
2018-06-30T19:16:27.384Z,26.00
2018-06-30T19:18:57.125Z,26.10
2018-06-30T19:21:27.160Z,26.20
2018-06-30T19:23:56.820Z,26.20
2018-06-30T19:26:26.521Z,26.10
2018-06-30T19:28:56.274Z,26.20
2018-06-30T19:33:56.692Z,26.50
2018-06-30T19:36:28.454Z,26.20
2018-06-30T19:38:58.144Z,25.90
2018-06-30T19:41:28.676Z,25.50
2018-06-30T19:43:58.111Z,25.20
2018-06-30T19:46:27.788Z,25.10
2018-06-30T19:48:57.471Z,25.10
2018-06-30T19:51:27.261Z,24.90
2018-06-30T19:53:57.167Z,24.80
2018-06-30T19:56:26.898Z,24.50
2018-06-30T20:01:25.965Z,24.50
2018-06-30T20:04:22.289Z,24.60
2018-06-30T20:06:52.100Z,24.60
2018-06-30T20:09:24.642Z,24.50
2018-06-30T20:12:02.159Z,24.50
2018-06-30T20:14:33.234Z,24.50
2018-06-30T20:17:02.857Z,24.40
2018-06-30T20:19:32.545Z,24.50
2018-06-30T20:22:03.635Z,24.50
2018-06-30T20:24:37.711Z,24.50
2018-06-30T20:27:10.320Z,24.40
2018-06-30T20:29:40.482Z,24.50
2018-06-30T20:32:10.391Z,24.60
2018-06-30T20:34:40.565Z,24.60
2018-06-30T20:37:10.290Z,24.50
2018-06-30T20:39:41.012Z,24.40
2018-06-30T20:44:55.956Z,24.00
2018-06-30T20:47:32.182Z,23.80
2018-06-30T20:50:02.786Z,23.70
2018-06-30T20:52:32.780Z,23.50
2018-06-30T20:57:32.035Z,23.30
2018-06-30T21:00:02.552Z,23.10
2018-06-30T21:02:35.996Z,23.00
2018-06-30T21:05:06.103Z,23.00
2018-06-30T21:07:36.352Z,23.10
2018-06-30T21:10:06.380Z,23.10
2018-06-30T21:12:38.343Z,23.10
2018-06-30T21:15:08.159Z,23.00
2018-06-30T21:20:07.818Z,22.50
2018-06-30T21:22:38.064Z,22.40
2018-06-30T21:25:24.036Z,22.40
2018-06-30T21:27:58.424Z,22.40
2018-06-30T21:30:36.304Z,22.40
2018-06-30T21:33:12.176Z,22.40
2018-06-30T21:35:42.399Z,22.50
2018-06-30T21:38:13.955Z,22.60
2018-06-30T21:40:43.932Z,22.40
2018-06-30T21:43:13.883Z,22.60
2018-06-30T21:45:44.462Z,22.60
2018-06-30T21:48:14.297Z,22.40
2018-06-30T21:50:44.327Z,22.30
2018-06-30T21:53:14.384Z,22.30
2018-06-30T21:55:44.086Z,22.30
2018-06-30T21:58:27.317Z,22.20
2018-06-30T22:01:03.134Z,22.10
2018-06-30T22:03:32.882Z,22.00
2018-06-30T22:06:02.866Z,21.90
2018-06-30T22:08:32.647Z,21.80
2018-06-30T22:11:03.784Z,21.80
2018-06-30T22:13:33.482Z,21.80
2018-06-30T22:16:03.593Z,21.70
2018-06-30T22:18:33.608Z,21.60
2018-06-30T22:21:03.598Z,21.50
2018-06-30T22:26:03.215Z,21.50
2018-06-30T22:28:33.119Z,21.50
2018-06-30T22:31:03.051Z,21.50
2018-06-30T22:33:33.049Z,21.50
2018-06-30T22:36:03.062Z,21.50
2018-06-30T22:38:33.072Z,21.50
2018-06-30T22:41:03.231Z,21.50
2018-06-30T22:43:33.125Z,21.50
2018-06-30T22:46:04.725Z,21.30
2018-06-30T22:48:34.614Z,21.40
2018-06-30T22:53:40.276Z,21.40
2018-06-30T22:56:10.364Z,21.30
2018-06-30T22:58:40.276Z,21.20
2018-06-30T23:01:10.308Z,21.20
2018-06-30T23:03:39.996Z,21.10
2018-06-30T23:06:09.932Z,21.20
2018-06-30T23:08:55.394Z,21.20
2018-06-30T23:11:25.557Z,21.20
2018-06-30T23:16:24.766Z,21.30
2018-06-30T23:18:54.333Z,21.10
2018-06-30T23:21:24.413Z,21.00
2018-06-30T23:23:54.413Z,20.90
2018-06-30T23:26:24.727Z,20.80
2018-06-30T23:28:54.574Z,20.70
2018-06-30T23:31:24.624Z,20.80
2018-06-30T23:33:54.548Z,21.10
2018-06-30T23:36:24.604Z,21.20
2018-06-30T23:38:54.736Z,21.40
2018-06-30T23:41:25.099Z,21.60
2018-06-30T23:43:55.098Z,21.70
2018-06-30T23:46:24.619Z,21.80
2018-06-30T23:48:54.607Z,21.90
2018-06-30T23:51:24.348Z,22.00
2018-06-30T23:53:53.883Z,22.10
2018-06-30T23:56:23.673Z,22.10
2018-06-30T23:58:53.680Z,22.10
